createdAt,value
2018-04-25T00:00:02.595Z,12.10
2018-04-25T00:02:30.277Z,12.10
2018-04-25T00:04:58.283Z,12.10
2018-04-25T00:07:25.917Z,12.10
2018-04-25T00:09:53.982Z,12.10
2018-04-25T00:12:21.657Z,12.10
2018-04-25T00:14:49.420Z,12.10
2018-04-25T00:17:17.183Z,12.10
2018-04-25T00:19:45.348Z,12.10
2018-04-25T00:22:13.037Z,12.10
2018-04-25T00:24:42.691Z,12.10
2018-04-25T00:27:10.340Z,12.10
2018-04-25T00:29:38.253Z,12.10
2018-04-25T00:32:06.016Z,12.10
2018-04-25T00:34:33.522Z,12.10
2018-04-25T00:37:01.144Z,12.10
2018-04-25T00:39:28.808Z,12.00
2018-04-25T00:41:56.461Z,12.00
2018-04-25T00:44:24.240Z,12.00
2018-04-25T00:46:51.887Z,12.00
2018-04-25T00:49:20.065Z,12.00
2018-04-25T00:51:47.985Z,12.10
2018-04-25T00:54:15.898Z,12.10
2018-04-25T00:56:43.900Z,12.10
2018-04-25T00:59:11.733Z,12.10
2018-04-25T01:01:39.808Z,12.10
2018-04-25T01:04:07.413Z,12.10
2018-04-25T01:06:35.541Z,12.10
2018-04-25T01:09:03.134Z,12.10
2018-04-25T01:11:30.867Z,12.10
2018-04-25T01:13:58.473Z,12.10
2018-04-25T01:16:26.125Z,12.10
2018-04-25T01:18:53.854Z,12.10
2018-04-25T01:21:21.830Z,12.10
2018-04-25T01:23:49.567Z,12.10
2018-04-25T01:26:17.504Z,12.10
2018-04-25T01:29:00.959Z,12.10
2018-04-25T01:31:42.886Z,12.10
2018-04-25T01:34:14.565Z,12.10
2018-04-25T01:39:49.803Z,12.10
2018-04-25T01:42:24.531Z,12.10
2018-04-25T01:44:58.336Z,12.10
2018-04-25T01:47:26.099Z,12.10
2018-04-25T01:49:56.019Z,12.20
2018-04-25T01:52:35.765Z,12.20
2018-04-25T01:55:15.239Z,12.20
2018-04-25T01:57:54.846Z,12.20
2018-04-25T02:00:34.701Z,12.20
2018-04-25T02:03:01.741Z,12.20
2018-04-25T02:05:29.311Z,12.20
2018-04-25T02:07:56.964Z,12.20
2018-04-25T02:10:24.524Z,12.20
2018-04-25T02:12:52.424Z,12.20
2018-04-25T02:15:20.068Z,12.20
2018-04-25T02:17:47.583Z,12.20
2018-04-25T02:20:15.190Z,12.20
2018-04-25T02:22:42.844Z,12.20
2018-04-25T02:25:10.507Z,12.30
2018-04-25T02:27:38.270Z,12.30
2018-04-25T02:30:05.795Z,12.20
2018-04-25T02:32:33.300Z,12.30
2018-04-25T02:35:01.363Z,12.30
2018-04-25T02:37:28.913Z,12.30
2018-04-25T02:39:56.808Z,12.30
2018-04-25T02:42:24.425Z,12.30
2018-04-25T02:44:52.104Z,12.30
2018-04-25T02:47:19.668Z,12.30
2018-04-25T02:49:47.644Z,12.30
2018-04-25T02:52:15.297Z,12.30
2018-04-25T02:54:43.279Z,12.40
2018-04-25T02:57:11.024Z,12.40
2018-04-25T02:59:38.944Z,12.40
2018-04-25T03:02:06.673Z,12.40
2018-04-25T03:04:34.268Z,12.40
2018-04-25T03:07:02.002Z,12.40
2018-04-25T03:09:29.651Z,12.40
2018-04-25T03:11:57.416Z,12.50
2018-04-25T03:14:24.876Z,12.40
2018-04-25T03:17:14.043Z,12.40
2018-04-25T03:19:42.113Z,12.40
2018-04-25T03:22:10.027Z,12.50
2018-04-25T03:24:37.744Z,12.50
2018-04-25T03:27:05.715Z,12.50
2018-04-25T03:29:33.687Z,12.50
2018-04-25T03:32:01.763Z,12.50
2018-04-25T03:34:29.632Z,12.50
2018-04-25T03:36:57.595Z,12.60
2018-04-25T03:39:25.563Z,12.60
2018-04-25T03:41:53.840Z,12.50
2018-04-25T03:44:21.808Z,12.50
2018-04-25T03:46:49.777Z,12.60
2018-04-25T03:49:17.645Z,12.50
2018-04-25T03:51:45.620Z,12.60
2018-04-25T03:54:13.492Z,12.60
2018-04-25T03:56:41.357Z,12.60
2018-04-25T03:59:08.757Z,12.60
2018-04-25T04:01:36.365Z,12.60
2018-04-25T04:04:04.749Z,12.60
2018-04-25T04:06:32.537Z,12.60
2018-04-25T04:08:59.989Z,12.60
2018-04-25T04:11:27.638Z,12.60
2018-04-25T04:13:55.295Z,12.60
2018-04-25T04:16:23.274Z,12.60
2018-04-25T04:18:50.720Z,12.60
2018-04-25T04:21:18.614Z,12.60
2018-04-25T04:23:46.064Z,12.60
2018-04-25T04:26:13.532Z,12.60
2018-04-25T04:28:41.062Z,12.60
2018-04-25T04:31:12.769Z,12.60
2018-04-25T04:33:40.585Z,12.60
2018-04-25T04:36:08.656Z,12.70
2018-04-25T04:38:36.636Z,12.70
2018-04-25T04:41:04.516Z,12.70
2018-04-25T04:43:32.158Z,12.70
2018-04-25T04:46:00.228Z,12.70
2018-04-25T04:48:28.198Z,12.70
2018-04-25T04:50:56.198Z,12.70
2018-04-25T04:53:23.729Z,12.70
2018-04-25T04:55:51.908Z,12.70
2018-04-25T04:58:19.877Z,12.70
2018-04-25T05:00:47.436Z,12.80
2018-04-25T05:03:15.432Z,12.80
2018-04-25T05:05:42.965Z,12.80
2018-04-25T05:08:10.934Z,12.80
2018-04-25T05:10:38.903Z,12.80
2018-04-25T05:13:06.996Z,12.80
2018-04-25T05:15:34.594Z,12.80
2018-04-25T05:18:02.121Z,12.80
2018-04-25T05:20:29.968Z,12.80
2018-04-25T05:22:57.539Z,12.80
2018-04-25T05:25:25.083Z,12.80
2018-04-25T05:27:54.002Z,12.80
2018-04-25T05:30:21.451Z,12.80
2018-04-25T05:32:49.001Z,12.80
2018-04-25T05:35:16.923Z,12.80
2018-04-25T05:37:48.788Z,12.80
2018-04-25T05:40:16.496Z,12.70
2018-04-25T05:42:43.999Z,12.70
2018-04-25T05:45:11.705Z,12.70
2018-04-25T05:47:39.776Z,12.70
2018-04-25T05:50:07.639Z,12.60
2018-04-25T05:52:35.109Z,12.60
2018-04-25T05:55:02.670Z,12.70
2018-04-25T05:57:30.066Z,12.70
2018-04-25T05:59:57.517Z,12.70
2018-04-25T06:02:25.036Z,12.70
2018-04-25T06:04:52.934Z,12.80
2018-04-25T06:07:22.478Z,12.80
2018-04-25T06:09:50.068Z,12.80
2018-04-25T06:12:18.065Z,12.80
2018-04-25T06:14:46.019Z,12.90
2018-04-25T06:17:14.190Z,12.90
2018-04-25T06:19:41.642Z,12.90
2018-04-25T06:22:09.565Z,12.90
2018-04-25T06:24:37.094Z,12.90
2018-04-25T06:27:04.971Z,12.90
2018-04-25T06:29:32.496Z,12.90
2018-04-25T06:31:59.955Z,12.90
2018-04-25T06:34:27.718Z,12.90
2018-04-25T06:36:55.589Z,12.90
2018-04-25T06:39:23.871Z,12.90
2018-04-25T06:41:51.423Z,12.90
2018-04-25T06:44:19.393Z,12.90
2018-04-25T06:46:47.363Z,12.90
2018-04-25T06:49:15.228Z,13.00
2018-04-25T06:51:42.687Z,13.00
2018-04-25T06:54:10.656Z,13.00
2018-04-25T06:56:38.635Z,13.00
2018-04-25T06:59:06.117Z,13.00
2018-04-25T07:01:33.645Z,13.10
2018-04-25T07:04:01.510Z,13.10
2018-04-25T07:06:29.692Z,13.20
2018-04-25T07:08:57.559Z,13.20
2018-04-25T07:11:25.009Z,13.20
2018-04-25T07:13:52.979Z,13.30
2018-04-25T07:16:20.952Z,13.20
2018-04-25T07:18:48.958Z,13.20
2018-04-25T07:21:16.479Z,13.20
2018-04-25T07:23:44.423Z,13.10
2018-04-25T07:26:11.849Z,13.10
2018-04-25T07:28:39.469Z,13.00
2018-04-25T07:31:07.437Z,13.10
2018-04-25T07:33:35.404Z,13.10
2018-04-25T07:36:03.299Z,13.10
2018-04-25T07:38:30.832Z,13.10
2018-04-25T07:40:58.905Z,13.00
2018-04-25T07:43:28.826Z,12.90
2018-04-25T07:45:56.491Z,12.70
2018-04-25T07:48:24.458Z,12.50
2018-04-25T07:50:52.338Z,12.40
2018-04-25T07:53:19.721Z,12.40
2018-04-25T07:55:47.235Z,12.40
2018-04-25T07:58:15.102Z,12.60
2018-04-25T08:00:43.079Z,12.70
2018-04-25T08:03:11.049Z,12.80
2018-04-25T08:05:39.020Z,12.80
2018-04-25T08:08:06.587Z,12.80
2018-04-25T08:10:34.027Z,12.80
2018-04-25T08:13:13.466Z,12.80
2018-04-25T08:19:08.706Z,12.50
2018-04-25T08:21:42.224Z,12.60
2018-04-25T08:24:09.971Z,12.60
2018-04-25T08:26:37.520Z,12.60
2018-04-25T08:29:05.083Z,12.50
2018-04-25T08:31:32.947Z,12.50
2018-04-25T08:34:00.929Z,12.60
2018-04-25T08:36:28.887Z,12.70
2018-04-25T08:38:56.855Z,12.80
2018-04-25T08:41:24.839Z,12.70
2018-04-25T08:43:52.386Z,12.50
2018-04-25T08:46:20.360Z,12.50
2018-04-25T08:48:48.333Z,12.30
2018-04-25T08:51:15.888Z,12.30
2018-04-25T08:53:43.753Z,12.50
2018-04-25T08:56:12.030Z,12.50
2018-04-25T08:58:39.998Z,12.40
2018-04-25T09:01:07.972Z,12.20
2018-04-25T09:03:35.837Z,12.40
2018-04-25T09:06:03.703Z,12.30
2018-04-25T09:08:31.264Z,12.20
2018-04-25T09:10:59.232Z,12.20
2018-04-25T09:13:27.031Z,12.00
2018-04-25T09:15:54.557Z,12.00
2018-04-25T09:18:22.528Z,12.10
2018-04-25T09:20:49.983Z,11.80
2018-04-25T09:23:17.850Z,11.80
2018-04-25T09:25:45.725Z,11.80
2018-04-25T09:28:13.689Z,11.70
2018-04-25T09:30:41.557Z,11.80
2018-04-25T09:33:09.492Z,11.60
2018-04-25T09:35:37.326Z,11.40
2018-04-25T09:38:04.957Z,11.30
2018-04-25T09:40:32.512Z,11.40
2018-04-25T09:43:00.490Z,11.10
2018-04-25T09:45:28.455Z,11.10
2018-04-25T09:47:56.337Z,11.10
2018-04-25T09:50:23.981Z,11.00
2018-04-25T09:52:51.850Z,11.00
2018-04-25T09:55:20.074Z,11.00
2018-04-25T09:57:47.611Z,11.10
2018-04-25T10:00:15.143Z,11.30
2018-04-25T10:02:43.227Z,11.10
2018-04-25T10:05:11.060Z,11.10
2018-04-25T10:07:38.750Z,11.10
2018-04-25T10:10:06.716Z,11.20
2018-04-25T10:12:35.410Z,11.20
2018-04-25T10:15:02.967Z,11.30
2018-04-25T10:17:30.932Z,11.20
2018-04-25T10:19:58.902Z,11.10
2018-04-25T10:22:26.890Z,11.20
2018-04-25T10:24:54.432Z,11.20
2018-04-25T10:27:22.620Z,11.10
2018-04-25T10:29:50.178Z,11.30
2018-04-25T10:32:17.738Z,11.30
2018-04-25T10:34:45.594Z,11.40
2018-04-25T10:37:13.666Z,11.50
2018-04-25T10:39:41.562Z,11.50
2018-04-25T10:42:08.991Z,11.40
2018-04-25T10:44:36.961Z,11.60
2018-04-25T10:47:04.932Z,11.60
2018-04-25T10:49:32.807Z,11.80
2018-04-25T10:52:00.774Z,11.80
2018-04-25T10:54:28.846Z,11.80
2018-04-25T10:56:56.641Z,11.90
2018-04-25T10:59:24.163Z,12.00
2018-04-25T11:01:52.057Z,12.30
2018-04-25T11:04:19.608Z,12.30
2018-04-25T11:06:47.253Z,12.30
2018-04-25T11:09:14.812Z,12.30
2018-04-25T11:11:42.788Z,12.20
2018-04-25T11:14:10.342Z,12.30
2018-04-25T11:16:38.320Z,12.10
2018-04-25T11:19:05.880Z,12.30
2018-04-25T11:21:33.841Z,12.50
2018-04-25T11:24:01.821Z,12.60
2018-04-25T11:26:29.859Z,12.70
2018-04-25T11:28:57.338Z,12.60
2018-04-25T11:31:25.317Z,12.80
2018-04-25T11:33:53.186Z,12.70
2018-04-25T11:36:20.572Z,12.70
2018-04-25T11:38:48.223Z,12.80
2018-04-25T11:41:15.762Z,13.00
2018-04-25T11:43:43.722Z,13.00
2018-04-25T11:46:11.693Z,12.90
2018-04-25T11:48:39.254Z,12.90
2018-04-25T11:51:07.452Z,12.80
2018-04-25T11:53:34.949Z,12.80
2018-04-25T11:56:02.507Z,12.70
2018-04-25T11:58:34.511Z,12.80
2018-04-25T12:01:02.380Z,12.80
2018-04-25T12:03:30.244Z,12.70
2018-04-25T12:05:58.215Z,12.60
2018-04-25T12:08:26.184Z,12.70
2018-04-25T12:10:54.080Z,12.50
2018-04-25T12:13:24.876Z,12.30
2018-04-25T12:15:52.550Z,12.50
2018-04-25T12:18:20.580Z,12.40
2018-04-25T12:20:48.191Z,12.30
2018-04-25T12:23:15.978Z,12.40
2018-04-25T12:25:43.540Z,12.50
2018-04-25T12:28:11.273Z,12.50
2018-04-25T12:30:39.250Z,12.50
2018-04-25T12:33:06.803Z,12.50
2018-04-25T12:35:34.669Z,12.50
2018-04-25T12:38:02.545Z,12.70
2018-04-25T12:40:30.514Z,12.50
2018-04-25T12:42:58.580Z,12.60
2018-04-25T12:45:26.654Z,12.50
2018-04-25T12:47:54.622Z,12.60
2018-04-25T12:50:22.693Z,12.70
2018-04-25T12:52:58.750Z,12.80
2018-04-25T12:55:26.831Z,12.90
2018-04-25T12:57:54.384Z,12.80
2018-04-25T13:00:22.364Z,12.90
2018-04-25T13:02:50.332Z,13.00
2018-04-25T13:05:17.892Z,13.00
2018-04-25T13:07:45.861Z,13.20
2018-04-25T13:10:13.351Z,13.40
2018-04-25T13:12:40.985Z,13.60
2018-04-25T13:15:08.459Z,13.90
2018-04-25T13:17:35.991Z,14.00
2018-04-25T13:20:04.073Z,14.00
2018-04-25T13:22:31.791Z,14.10
2018-04-25T13:24:59.497Z,14.10
2018-04-25T13:27:26.908Z,14.10
2018-04-25T13:29:54.609Z,14.00
2018-04-25T13:32:22.372Z,14.10
2018-04-25T13:34:50.270Z,14.00
2018-04-25T13:37:17.652Z,14.20
2018-04-25T13:39:45.055Z,14.30
2018-04-25T13:42:13.440Z,13.90
2018-04-25T13:44:41.332Z,13.70
2018-04-25T13:47:08.860Z,13.60
2018-04-25T13:49:36.830Z,13.30
2018-04-25T13:52:04.813Z,13.20
2018-04-25T13:54:32.399Z,13.40
2018-04-25T13:56:59.920Z,13.50
2018-04-25T13:59:27.900Z,13.40
2018-04-25T14:01:55.864Z,13.30
2018-04-25T14:04:23.427Z,13.30
2018-04-25T14:06:51.390Z,13.20
2018-04-25T14:09:19.270Z,13.30
2018-04-25T14:11:46.715Z,13.30
2018-04-25T14:14:14.687Z,13.30
2018-04-25T14:16:42.662Z,13.40
2018-04-25T14:19:10.624Z,13.30
2018-04-25T14:21:38.601Z,13.40
2018-04-25T14:24:06.772Z,13.40
2018-04-25T14:26:34.748Z,13.40
2018-04-25T14:29:02.716Z,13.30
2018-04-25T14:31:30.678Z,13.20
2018-04-25T14:33:58.543Z,13.20
2018-04-25T14:36:26.617Z,13.20
2018-04-25T14:38:54.585Z,13.10
2018-04-25T14:41:28.936Z,13.10
2018-04-25T14:43:57.180Z,13.10
2018-04-25T14:46:25.161Z,13.10
2018-04-25T14:48:52.710Z,13.10
2018-04-25T14:51:20.604Z,13.10
2018-04-25T14:53:48.140Z,13.00
2018-04-25T14:56:16.109Z,13.10
2018-04-25T14:58:43.675Z,13.20
2018-04-25T15:01:11.638Z,13.30
2018-04-25T15:03:39.103Z,13.30
2018-04-25T15:06:07.071Z,13.40
2018-04-25T15:08:34.522Z,13.40
2018-04-25T15:11:02.598Z,13.40
2018-04-25T15:13:30.460Z,13.50
2018-04-25T15:15:58.533Z,13.60
2018-04-25T15:18:26.503Z,13.60
2018-04-25T15:20:54.072Z,13.70
2018-04-25T15:23:21.939Z,13.70
2018-04-25T15:25:49.901Z,13.80
2018-04-25T15:28:17.868Z,13.90
2018-04-25T15:30:45.849Z,14.00
2018-04-25T15:33:13.755Z,14.20
2018-04-25T15:35:41.266Z,14.30
2018-04-25T15:38:09.132Z,14.40
2018-04-25T15:40:37.001Z,14.40
2018-04-25T15:43:04.970Z,14.50
2018-04-25T15:45:32.836Z,14.60
2018-04-25T15:48:00.809Z,14.60
2018-04-25T15:50:28.374Z,14.60
2018-04-25T15:52:56.337Z,14.70
2018-04-25T15:55:25.330Z,14.60
2018-04-25T15:57:54.760Z,14.40
2018-04-25T16:00:22.507Z,14.40
2018-04-25T16:02:49.957Z,14.40
2018-04-25T16:05:17.886Z,14.50
2018-04-25T16:07:45.443Z,14.70
2018-04-25T16:10:13.048Z,15.20
2018-04-25T16:12:41.223Z,15.20
2018-04-25T16:15:09.196Z,15.10
2018-04-25T16:17:37.160Z,14.90
2018-04-25T16:20:05.068Z,14.80
2018-04-25T16:22:32.598Z,14.80
2018-04-25T16:25:00.258Z,14.70
2018-04-25T16:27:28.159Z,14.60
2018-04-25T16:29:55.691Z,14.60
2018-04-25T16:32:23.155Z,14.60
2018-04-25T16:34:50.621Z,14.60
2018-04-25T16:37:30.036Z,14.60
2018-04-25T16:39:58.004Z,14.60
2018-04-25T16:42:25.900Z,14.60
2018-04-25T16:44:53.638Z,14.70
2018-04-25T16:47:21.525Z,14.90
2018-04-25T16:49:49.061Z,15.10
2018-04-25T16:52:16.939Z,15.30
2018-04-25T16:54:44.899Z,15.70
2018-04-25T16:57:13.533Z,16.00
2018-04-25T16:59:41.479Z,16.30
2018-04-25T17:02:09.018Z,16.20
2018-04-25T17:04:37.902Z,16.00
2018-04-25T17:07:06.999Z,15.90
2018-04-25T17:09:39.803Z,16.00
2018-04-25T17:12:07.351Z,15.80
2018-04-25T17:14:40.951Z,15.50
2018-04-25T17:17:08.921Z,15.60
2018-04-25T17:19:36.393Z,15.50
2018-04-25T17:22:03.866Z,15.40
2018-04-25T17:24:31.388Z,15.30
2018-04-25T17:26:59.255Z,15.20
2018-04-25T17:29:27.225Z,15.20
2018-04-25T17:31:54.897Z,15.10
2018-04-25T17:34:22.855Z,15.00
2018-04-25T17:36:50.896Z,15.00
2018-04-25T17:39:18.488Z,14.90
2018-04-25T17:41:46.412Z,14.90
2018-04-25T17:44:15.595Z,14.80
2018-04-25T17:46:44.239Z,14.70
2018-04-25T17:49:11.801Z,14.50
2018-04-25T17:51:39.776Z,14.30
2018-04-25T17:54:07.659Z,14.10
2018-04-25T17:56:35.126Z,14.00
2018-04-25T17:59:02.576Z,13.70
2018-04-25T18:01:30.134Z,13.40
2018-04-25T18:03:57.735Z,13.40
2018-04-25T18:06:25.234Z,13.40
2018-04-25T18:08:53.204Z,13.40
2018-04-25T18:11:22.310Z,13.30
2018-04-25T18:13:49.855Z,13.30
2018-04-25T18:16:17.954Z,13.30
2018-04-25T18:18:45.489Z,13.30
2018-04-25T18:21:13.467Z,13.30
2018-04-25T18:23:41.531Z,13.30
2018-04-25T18:26:09.485Z,13.20
2018-04-25T18:28:41.977Z,13.20
2018-04-25T18:31:10.054Z,13.10
2018-04-25T18:33:37.715Z,13.10
2018-04-25T18:36:05.681Z,13.00
2018-04-25T18:38:34.119Z,12.90
2018-04-25T18:41:03.709Z,12.90
2018-04-25T18:43:33.380Z,12.80
2018-04-25T18:46:01.360Z,12.70
2018-04-25T18:48:29.235Z,12.60
2018-04-25T18:50:56.705Z,12.60
2018-04-25T18:53:29.897Z,12.50
2018-04-25T18:55:57.528Z,12.40
2018-04-25T18:58:25.397Z,12.30
2018-04-25T19:00:57.063Z,12.20
2018-04-25T19:03:28.503Z,12.10
2018-04-25T19:05:56.071Z,12.10
2018-04-25T19:08:24.346Z,12.00
2018-04-25T19:10:53.648Z,12.00
2018-04-25T19:13:21.615Z,11.90
2018-04-25T19:15:49.168Z,11.90
2018-04-25T19:18:16.729Z,11.90
2018-04-25T19:20:44.698Z,11.80
2018-04-25T19:23:13.181Z,11.80
2018-04-25T19:25:43.334Z,11.80
2018-04-25T19:28:10.810Z,11.70
2018-04-25T19:30:38.418Z,11.70
2018-04-25T19:33:06.228Z,11.60
2018-04-25T19:35:34.255Z,11.60
2018-04-25T19:38:02.336Z,11.50
2018-04-25T19:40:29.809Z,11.50
2018-04-25T19:42:57.272Z,11.40
2018-04-25T19:45:24.803Z,11.40
2018-04-25T19:48:03.728Z,11.30
2018-04-25T19:50:32.210Z,11.30
2018-04-25T19:53:00.189Z,11.30
2018-04-25T19:55:27.844Z,11.20
2018-04-25T19:57:55.821Z,11.10
2018-04-25T20:00:23.733Z,11.00
2018-04-25T20:02:51.349Z,11.00
2018-04-25T20:05:20.338Z,11.10
2018-04-25T20:07:48.410Z,11.10
2018-04-25T20:10:16.307Z,11.10
2018-04-25T20:12:44.102Z,11.00
2018-04-25T20:15:11.837Z,11.00
2018-04-25T20:17:39.265Z,10.90
2018-04-25T20:20:07.351Z,10.90
2018-04-25T20:22:34.916Z,10.80
2018-04-25T20:25:08.090Z,10.80
2018-04-25T20:27:35.671Z,10.70
2018-04-25T20:30:03.734Z,10.70
2018-04-25T20:32:31.317Z,10.70
2018-04-25T20:34:59.044Z,10.70
2018-04-25T20:37:27.014Z,10.60
2018-04-25T20:39:55.003Z,10.60
2018-04-25T20:42:22.542Z,10.50
2018-04-25T20:44:50.517Z,10.50
2018-04-25T20:47:19.301Z,10.40
2018-04-25T20:49:47.381Z,10.40
2018-04-25T20:52:15.355Z,10.40
2018-04-25T20:54:43.349Z,10.30
2018-04-25T20:57:14.182Z,10.30
2018-04-25T20:59:41.663Z,10.30
2018-04-25T21:02:09.683Z,10.20
2018-04-25T21:04:37.647Z,10.10
2018-04-25T21:07:05.537Z,10.10
2018-04-25T21:09:33.280Z,10.10
2018-04-25T21:12:01.265Z,10.10
2018-04-25T21:14:28.916Z,10.10
2018-04-25T21:16:56.840Z,10.00
2018-04-25T21:19:24.657Z,10.00
2018-04-25T21:21:52.312Z,10.00
2018-04-25T21:24:20.284Z,10.00
2018-04-25T21:26:48.382Z,10.00
2018-04-25T21:29:16.023Z,10.00
2018-04-25T21:31:43.743Z,10.00
2018-04-25T21:34:11.348Z,10.00
2018-04-25T21:36:38.795Z,9.90
2018-04-25T21:39:06.700Z,9.90
2018-04-25T21:41:34.269Z,9.90
2018-04-25T21:44:02.000Z,9.90
2018-04-25T21:46:29.612Z,9.90
2018-04-25T21:48:57.225Z,9.80
2018-04-25T21:51:25.411Z,9.80
2018-04-25T21:53:53.054Z,9.80
2018-04-25T21:56:20.939Z,9.80
2018-04-25T21:58:48.586Z,9.80
2018-04-25T22:01:18.469Z,9.80
2018-04-25T22:03:46.096Z,9.70
2018-04-25T22:06:13.613Z,9.70
2018-04-25T22:08:41.584Z,9.60
2018-04-25T22:11:09.554Z,9.60
2018-04-25T22:13:37.533Z,9.60
2018-04-25T22:16:05.524Z,9.60
2018-04-25T22:18:33.053Z,9.50
2018-04-25T22:21:00.922Z,9.50
2018-04-25T22:23:29.831Z,9.50
2018-04-25T22:25:57.267Z,9.40
2018-04-25T22:28:25.261Z,9.40
2018-04-25T22:30:52.822Z,9.30
2018-04-25T22:33:20.463Z,9.30
2018-04-25T22:35:48.429Z,9.30
2018-04-25T22:38:16.408Z,9.30
2018-04-25T22:40:43.931Z,9.20
2018-04-25T22:43:11.724Z,9.20
2018-04-25T22:45:39.592Z,9.10
2018-04-25T22:48:07.561Z,9.10
2018-04-25T22:50:35.537Z,9.10
2018-04-25T22:53:03.503Z,9.00
2018-04-25T22:55:31.072Z,9.00
2018-04-25T22:57:58.678Z,9.00
2018-04-25T23:00:26.292Z,8.90
2018-04-25T23:02:53.949Z,8.90
2018-04-25T23:05:25.301Z,8.90
2018-04-25T23:07:52.758Z,8.90
2018-04-25T23:10:20.310Z,8.80
2018-04-25T23:12:48.281Z,8.80
2018-04-25T23:15:15.841Z,8.80
2018-04-25T23:17:43.745Z,8.80
2018-04-25T23:20:11.328Z,8.80
2018-04-25T23:22:38.938Z,8.70
2018-04-25T23:25:07.068Z,8.50
2018-04-25T23:27:34.668Z,8.40
2018-04-25T23:30:02.666Z,8.30
2018-04-25T23:32:30.299Z,8.30
2018-04-25T23:34:58.282Z,8.30
2018-04-25T23:37:25.929Z,8.30
2018-04-25T23:39:53.518Z,8.30
2018-04-25T23:42:21.050Z,8.40
2018-04-25T23:44:49.030Z,8.50
2018-04-25T23:47:16.886Z,8.50
2018-04-25T23:49:44.751Z,8.50
2018-04-25T23:52:12.620Z,8.50
2018-04-25T23:54:40.588Z,8.50
2018-04-25T23:57:08.968Z,8.40
2018-04-25T23:59:36.837Z,8.50
